sensor_id;sensor_type;location;lat;lon;timestamp;temperature;humidity
68276;DHT22;55106;51.438;-0.098;2022-09-17T00:02:21;10.14;64.84
68276;DHT22;55106;51.438;-0.098;2022-09-17T00:04:50;10.07;65.17
68276;DHT22;55106;51.438;-0.098;2022-09-17T00:07:16;9.96;66.03
68276;DHT22;55106;51.438;-0.098;2022-09-17T00:09:41;9.89;65.91
68276;DHT22;55106;51.438;-0.098;2022-09-17T00:12:07;9.87;66.63
68276;DHT22;55106;51.438;-0.098;2022-09-17T00:14:34;9.82;66.51
68276;DHT22;55106;51.438;-0.098;2022-09-17T00:17:00;9.78;66.57
68276;DHT22;55106;51.438;-0.098;2022-09-17T00:19:25;9.68;66.92
68276;DHT22;55106;51.438;-0.098;2022-09-17T00:21:51;9.75;66.36
68276;DHT22;55106;51.438;-0.098;2022-09-17T00:24:18;9.75;66.48
68276;DHT22;55106;51.438;-0.098;2022-09-17T00:26:44;9.83;66.20
68276;DHT22;55106;51.438;-0.098;2022-09-17T00:29:10;9.69;67.83
68276;DHT22;55106;51.438;-0.098;2022-09-17T00:31:35;9.69;66.68
68276;DHT22;55106;51.438;-0.098;2022-09-17T00:34:02;9.62;66.58
68276;DHT22;55106;51.438;-0.098;2022-09-17T00:36:28;9.68;66.86
68276;DHT22;55106;51.438;-0.098;2022-09-17T00:38:56;9.59;67.39
68276;DHT22;55106;51.438;-0.098;2022-09-17T00:41:24;9.45;67.89
68276;DHT22;55106;51.438;-0.098;2022-09-17T00:43:55;9.32;68.95
68276;DHT22;55106;51.438;-0.098;2022-09-17T00:48:54;9.21;69.35
68276;DHT22;55106;51.438;-0.098;2022-09-17T00:51:29;9.07;70.28
68276;DHT22;55106;51.438;-0.098;2022-09-17T00:53:59;8.93;71.10
68276;DHT22;55106;51.438;-0.098;2022-09-17T00:56:28;8.79;71.23
68276;DHT22;55106;51.438;-0.098;2022-09-17T00:58:55;8.69;72.16
68276;DHT22;55106;51.438;-0.098;2022-09-17T01:01:22;8.57;72.47
68276;DHT22;55106;51.438;-0.098;2022-09-17T01:03:47;8.49;73.20
68276;DHT22;55106;51.438;-0.098;2022-09-17T01:06:21;8.38;73.35
68276;DHT22;55106;51.438;-0.098;2022-09-17T01:14:27;8.22;74.38
68276;DHT22;55106;51.438;-0.098;2022-09-17T01:17:19;8.12;74.91
68276;DHT22;55106;51.438;-0.098;2022-09-17T01:20:15;8.04;75.08
68276;DHT22;55106;51.438;-0.098;2022-09-17T01:26:19;8.08;75.45
68276;DHT22;55106;51.438;-0.098;2022-09-17T01:32:07;7.90;76.49
68276;DHT22;55106;51.438;-0.098;2022-09-17T01:37:08;7.83;77.31
68276;DHT22;55106;51.438;-0.098;2022-09-17T01:45:02;7.60;78.21
68276;DHT22;55106;51.438;-0.098;2022-09-17T01:47:38;7.53;78.59
68276;DHT22;55106;51.438;-0.098;2022-09-17T01:50:10;7.42;78.54
68276;DHT22;55106;51.438;-0.098;2022-09-17T01:52:38;7.40;78.67
68276;DHT22;55106;51.438;-0.098;2022-09-17T01:55:12;7.39;79.00
68276;DHT22;55106;51.438;-0.098;2022-09-17T01:57:46;7.29;79.25
68276;DHT22;55106;51.438;-0.098;2022-09-17T02:00:13;7.19;79.08
68276;DHT22;55106;51.438;-0.098;2022-09-17T02:02:49;7.15;79.36
68276;DHT22;55106;51.438;-0.098;2022-09-17T02:05:21;7.08;80.32
68276;DHT22;55106;51.438;-0.098;2022-09-17T02:07:55;7.02;80.96
68276;DHT22;55106;51.438;-0.098;2022-09-17T02:10:28;6.98;80.99
68276;DHT22;55106;51.438;-0.098;2022-09-17T02:13:01;6.94;80.68
68276;DHT22;55106;51.438;-0.098;2022-09-17T02:15:40;6.92;80.77
68276;DHT22;55106;51.438;-0.098;2022-09-17T02:18:25;6.90;81.15
68276;DHT22;55106;51.438;-0.098;2022-09-17T02:21:16;6.88;80.92
68276;DHT22;55106;51.438;-0.098;2022-09-17T02:26:50;6.80;81.75
68276;DHT22;55106;51.438;-0.098;2022-09-17T02:29:42;6.76;81.54
68276;DHT22;55106;51.438;-0.098;2022-09-17T02:32:09;6.71;81.72
68276;DHT22;55106;51.438;-0.098;2022-09-17T02:34:35;6.71;81.75
68276;DHT22;55106;51.438;-0.098;2022-09-17T02:37:01;6.69;81.89
68276;DHT22;55106;51.438;-0.098;2022-09-17T02:39:28;6.63;81.84
68276;DHT22;55106;51.438;-0.098;2022-09-17T02:52:46;6.47;82.67
68276;DHT22;55106;51.438;-0.098;2022-09-17T02:55:17;6.46;83.36
68276;DHT22;55106;51.438;-0.098;2022-09-17T03:00:16;6.42;83.97
68276;DHT22;55106;51.438;-0.098;2022-09-17T03:02:45;6.37;83.97
68276;DHT22;55106;51.438;-0.098;2022-09-17T03:05:12;6.36;84.14
68276;DHT22;55106;51.438;-0.098;2022-09-17T03:07:39;6.29;84.02
68276;DHT22;55106;51.438;-0.098;2022-09-17T03:10:05;6.28;84.52
68276;DHT22;55106;51.438;-0.098;2022-09-17T03:12:30;6.25;84.41
68276;DHT22;55106;51.438;-0.098;2022-09-17T03:14:56;6.23;85.12
68276;DHT22;55106;51.438;-0.098;2022-09-17T03:17:21;6.19;84.63
68276;DHT22;55106;51.438;-0.098;2022-09-17T03:19:47;6.16;84.72
68276;DHT22;55106;51.438;-0.098;2022-09-17T03:22:12;6.16;85.35
68276;DHT22;55106;51.438;-0.098;2022-09-17T03:24:38;6.12;84.82
68276;DHT22;55106;51.438;-0.098;2022-09-17T03:27:03;6.15;85.20
68276;DHT22;55106;51.438;-0.098;2022-09-17T03:29:29;6.09;85.16
68276;DHT22;55106;51.438;-0.098;2022-09-17T03:31:54;6.09;85.05
68276;DHT22;55106;51.438;-0.098;2022-09-17T03:34:20;6.08;85.04
68276;DHT22;55106;51.438;-0.098;2022-09-17T03:36:45;6.06;85.77
68276;DHT22;55106;51.438;-0.098;2022-09-17T03:39:11;6.01;85.25
68276;DHT22;55106;51.438;-0.098;2022-09-17T03:41:37;5.99;85.82
68276;DHT22;55106;51.438;-0.098;2022-09-17T03:44:04;5.98;85.57
68276;DHT22;55106;51.438;-0.098;2022-09-17T03:46:29;5.92;85.89
68276;DHT22;55106;51.438;-0.098;2022-09-17T03:48:55;5.87;85.65
68276;DHT22;55106;51.438;-0.098;2022-09-17T03:51:20;5.90;85.76
68276;DHT22;55106;51.438;-0.098;2022-09-17T03:53:46;5.90;86.09
68276;DHT22;55106;51.438;-0.098;2022-09-17T03:56:11;5.87;86.19
68276;DHT22;55106;51.438;-0.098;2022-09-17T03:58:37;5.87;86.76
68276;DHT22;55106;51.438;-0.098;2022-09-17T04:01:03;5.81;86.57
68276;DHT22;55106;51.438;-0.098;2022-09-17T04:03:28;5.78;86.73
68276;DHT22;55106;51.438;-0.098;2022-09-17T04:05:54;5.74;86.86
68276;DHT22;55106;51.438;-0.098;2022-09-17T04:08:20;5.68;87.37
68276;DHT22;55106;51.438;-0.098;2022-09-17T04:10:46;5.64;87.38
68276;DHT22;55106;51.438;-0.098;2022-09-17T04:13:13;5.67;87.37
68276;DHT22;55106;51.438;-0.098;2022-09-17T04:15:38;5.58;87.16
68276;DHT22;55106;51.438;-0.098;2022-09-17T04:18:04;5.61;87.41
68276;DHT22;55106;51.438;-0.098;2022-09-17T04:20:30;5.63;88.03
68276;DHT22;55106;51.438;-0.098;2022-09-17T04:22:55;5.67;87.86
68276;DHT22;55106;51.438;-0.098;2022-09-17T04:25:21;5.70;88.01
68276;DHT22;55106;51.438;-0.098;2022-09-17T04:27:47;5.63;88.06
68276;DHT22;55106;51.438;-0.098;2022-09-17T04:30:13;5.55;88.12
68276;DHT22;55106;51.438;-0.098;2022-09-17T04:32:39;5.58;88.32
68276;DHT22;55106;51.438;-0.098;2022-09-17T04:35:04;5.57;88.33
68276;DHT22;55106;51.438;-0.098;2022-09-17T04:37:30;5.57;88.20
68276;DHT22;55106;51.438;-0.098;2022-09-17T04:39:55;5.53;88.53
68276;DHT22;55106;51.438;-0.098;2022-09-17T04:42:21;5.48;88.63
68276;DHT22;55106;51.438;-0.098;2022-09-17T04:44:46;5.51;89.00
68276;DHT22;55106;51.438;-0.098;2022-09-17T04:47:12;5.44;89.02
68276;DHT22;55106;51.438;-0.098;2022-09-17T04:49:37;5.40;88.92
68276;DHT22;55106;51.438;-0.098;2022-09-17T04:52:02;5.40;89.15
68276;DHT22;55106;51.438;-0.098;2022-09-17T04:54:28;5.39;89.38
68276;DHT22;55106;51.438;-0.098;2022-09-17T04:56:54;5.30;89.07
68276;DHT22;55106;51.438;-0.098;2022-09-17T04:59:19;5.34;89.50
68276;DHT22;55106;51.438;-0.098;2022-09-17T05:01:45;5.34;89.35
68276;DHT22;55106;51.438;-0.098;2022-09-17T05:04:10;5.32;89.26
68276;DHT22;55106;51.438;-0.098;2022-09-17T05:06:36;5.29;89.04
68276;DHT22;55106;51.438;-0.098;2022-09-17T05:09:01;5.27;89.44
68276;DHT22;55106;51.438;-0.098;2022-09-17T05:11:27;5.26;89.48
68276;DHT22;55106;51.438;-0.098;2022-09-17T05:13:53;5.29;89.37
68276;DHT22;55106;51.438;-0.098;2022-09-17T05:16:18;5.30;89.50
68276;DHT22;55106;51.438;-0.098;2022-09-17T05:18:44;5.30;89.59
68276;DHT22;55106;51.438;-0.098;2022-09-17T05:21:10;5.29;89.64
68276;DHT22;55106;51.438;-0.098;2022-09-17T05:23:35;5.29;89.51
68276;DHT22;55106;51.438;-0.098;2022-09-17T05:26:01;5.29;89.55
68276;DHT22;55106;51.438;-0.098;2022-09-17T05:28:27;5.30;89.63
68276;DHT22;55106;51.438;-0.098;2022-09-17T05:30:52;5.27;89.38
68276;DHT22;55106;51.438;-0.098;2022-09-17T05:33:18;5.32;90.01
68276;DHT22;55106;51.438;-0.098;2022-09-17T05:35:45;5.32;90.10
68276;DHT22;55106;51.438;-0.098;2022-09-17T05:38:10;5.27;89.85
68276;DHT22;55106;51.438;-0.098;2022-09-17T05:40:36;5.29;89.77
68276;DHT22;55106;51.438;-0.098;2022-09-17T05:43:05;5.29;89.86
68276;DHT22;55106;51.438;-0.098;2022-09-17T05:45:34;5.30;90.07
68276;DHT22;55106;51.438;-0.098;2022-09-17T05:48:01;5.33;89.94
68276;DHT22;55106;51.438;-0.098;2022-09-17T05:50:28;5.29;89.98
68276;DHT22;55106;51.438;-0.098;2022-09-17T05:52:55;5.23;90.26
68276;DHT22;55106;51.438;-0.098;2022-09-17T05:55:22;5.34;90.03
68276;DHT22;55106;51.438;-0.098;2022-09-17T05:57:48;5.44;90.22
68276;DHT22;55106;51.438;-0.098;2022-09-17T06:00:14;5.46;89.72
68276;DHT22;55106;51.438;-0.098;2022-09-17T06:02:40;5.48;89.50
68276;DHT22;55106;51.438;-0.098;2022-09-17T06:05:06;5.61;89.65
68276;DHT22;55106;51.438;-0.098;2022-09-17T06:07:34;5.68;89.01
68276;DHT22;55106;51.438;-0.098;2022-09-17T06:10:00;5.82;88.51
68276;DHT22;55106;51.438;-0.098;2022-09-17T06:12:26;5.98;87.94
68276;DHT22;55106;51.438;-0.098;2022-09-17T06:14:51;6.09;87.66
68276;DHT22;55106;51.438;-0.098;2022-09-17T06:17:17;6.18;87.47
68276;DHT22;55106;51.438;-0.098;2022-09-17T06:19:42;6.30;87.36
68276;DHT22;55106;51.438;-0.098;2022-09-17T06:22:08;6.36;86.65
68276;DHT22;55106;51.438;-0.098;2022-09-17T06:24:33;6.49;86.35
68276;DHT22;55106;51.438;-0.098;2022-09-17T06:26:59;6.58;86.23
68276;DHT22;55106;51.438;-0.098;2022-09-17T06:29:24;6.71;85.43
68276;DHT22;55106;51.438;-0.098;2022-09-17T06:31:49;6.78;85.10
68276;DHT22;55106;51.438;-0.098;2022-09-17T06:34:16;6.88;84.86
68276;DHT22;55106;51.438;-0.098;2022-09-17T06:36:41;7.04;84.48
68276;DHT22;55106;51.438;-0.098;2022-09-17T06:39:07;7.20;84.31
68276;DHT22;55106;51.438;-0.098;2022-09-17T06:41:33;7.46;83.87
68276;DHT22;55106;51.438;-0.098;2022-09-17T06:43:59;7.66;83.25
68276;DHT22;55106;51.438;-0.098;2022-09-17T06:46:25;7.84;82.36
68276;DHT22;55106;51.438;-0.098;2022-09-17T06:48:51;8.02;81.68
68276;DHT22;55106;51.438;-0.098;2022-09-17T06:51:16;8.36;80.86
68276;DHT22;55106;51.438;-0.098;2022-09-17T06:53:42;8.72;79.67
68276;DHT22;55106;51.438;-0.098;2022-09-17T06:56:08;9.35;77.26
68276;DHT22;55106;51.438;-0.098;2022-09-17T06:58:34;10.00;75.22
68276;DHT22;55106;51.438;-0.098;2022-09-17T07:01:06;10.37;72.90
68276;DHT22;55106;51.438;-0.098;2022-09-17T07:03:32;10.95;71.23
68276;DHT22;55106;51.438;-0.098;2022-09-17T07:05:58;11.12;69.86
68276;DHT22;55106;51.438;-0.098;2022-09-17T07:08:23;11.03;70.11
68276;DHT22;55106;51.438;-0.098;2022-09-17T07:10:50;11.13;69.70
68276;DHT22;55106;51.438;-0.098;2022-09-17T07:13:16;11.13;69.89
68276;DHT22;55106;51.438;-0.098;2022-09-17T07:15:41;11.10;69.20
68276;DHT22;55106;51.438;-0.098;2022-09-17T07:18:08;11.24;68.93
68276;DHT22;55106;51.438;-0.098;2022-09-17T07:20:34;11.04;68.85
68276;DHT22;55106;51.438;-0.098;2022-09-17T07:22:59;10.85;69.49
68276;DHT22;55106;51.438;-0.098;2022-09-17T07:25:25;10.64;69.66
68276;DHT22;55106;51.438;-0.098;2022-09-17T07:27:51;10.88;70.07
68276;DHT22;55106;51.438;-0.098;2022-09-17T07:30:17;10.64;69.76
68276;DHT22;55106;51.438;-0.098;2022-09-17T07:32:42;10.65;70.31
68276;DHT22;55106;51.438;-0.098;2022-09-17T07:35:08;10.66;69.52
68276;DHT22;55106;51.438;-0.098;2022-09-17T07:37:33;10.79;69.28
68276;DHT22;55106;51.438;-0.098;2022-09-17T07:40:00;11.12;69.18
68276;DHT22;55106;51.438;-0.098;2022-09-17T07:42:25;10.88;68.52
68276;DHT22;55106;51.438;-0.098;2022-09-17T07:44:52;10.79;68.69
68276;DHT22;55106;51.438;-0.098;2022-09-17T07:47:18;10.99;68.79
68276;DHT22;55106;51.438;-0.098;2022-09-17T07:49:45;11.02;68.06
68276;DHT22;55106;51.438;-0.098;2022-09-17T07:52:10;11.06;68.34
68276;DHT22;55106;51.438;-0.098;2022-09-17T07:54:36;11.26;68.75
68276;DHT22;55106;51.438;-0.098;2022-09-17T07:57:05;11.45;68.76
68276;DHT22;55106;51.438;-0.098;2022-09-17T07:59:30;11.35;66.68
68276;DHT22;55106;51.438;-0.098;2022-09-17T08:01:56;11.35;67.01
68276;DHT22;55106;51.438;-0.098;2022-09-17T08:04:21;11.47;66.69
68276;DHT22;55106;51.438;-0.098;2022-09-17T08:06:47;11.74;67.84
68276;DHT22;55106;51.438;-0.098;2022-09-17T08:09:14;12.06;67.20
68276;DHT22;55106;51.438;-0.098;2022-09-17T08:11:40;12.30;65.80
68276;DHT22;55106;51.438;-0.098;2022-09-17T08:14:09;12.57;64.24
68276;DHT22;55106;51.438;-0.098;2022-09-17T08:16:34;12.67;63.84
68276;DHT22;55106;51.438;-0.098;2022-09-17T08:19:00;12.89;62.62
68276;DHT22;55106;51.438;-0.098;2022-09-17T08:21:25;12.87;62.98
68276;DHT22;55106;51.438;-0.098;2022-09-17T08:23:51;12.94;62.60
68276;DHT22;55106;51.438;-0.098;2022-09-17T08:26:19;12.99;62.35
68276;DHT22;55106;51.438;-0.098;2022-09-17T08:28:47;13.70;60.39
68276;DHT22;55106;51.438;-0.098;2022-09-17T08:31:15;13.27;59.71
68276;DHT22;55106;51.438;-0.098;2022-09-17T08:33:41;13.04;60.46
68276;DHT22;55106;51.438;-0.098;2022-09-17T08:36:09;13.35;60.84
68276;DHT22;55106;51.438;-0.098;2022-09-17T08:38:36;13.50;59.58
68276;DHT22;55106;51.438;-0.098;2022-09-17T08:44:01;14.21;57.86
68276;DHT22;55106;51.438;-0.098;2022-09-17T08:46:33;14.29;58.92
68276;DHT22;55106;51.438;-0.098;2022-09-17T08:54:54;15.63;52.94
68276;DHT22;55106;51.438;-0.098;2022-09-17T09:02:34;18.19;45.65
68276;DHT22;55106;51.438;-0.098;2022-09-17T09:05:12;17.41;46.48
68276;DHT22;55106;51.438;-0.098;2022-09-17T09:07:47;17.85;46.62
68276;DHT22;55106;51.438;-0.098;2022-09-17T09:10:19;16.82;50.52
68276;DHT22;55106;51.438;-0.098;2022-09-17T09:12:49;16.61;50.94
68276;DHT22;55106;51.438;-0.098;2022-09-17T09:15:42;16.68;52.26
68276;DHT22;55106;51.438;-0.098;2022-09-17T09:18:28;16.00;52.96
68276;DHT22;55106;51.438;-0.098;2022-09-17T09:26:45;18.46;47.46
68276;DHT22;55106;51.438;-0.098;2022-09-17T09:34:21;21.21;39.30
68276;DHT22;55106;51.438;-0.098;2022-09-17T09:36:48;21.44;41.46
68276;DHT22;55106;51.438;-0.098;2022-09-17T09:39:22;21.74;38.07
68276;DHT22;55106;51.438;-0.098;2022-09-17T09:41:54;21.35;38.41
68276;DHT22;55106;51.438;-0.098;2022-09-17T09:44:23;20.51;40.37
68276;DHT22;55106;51.438;-0.098;2022-09-17T09:47:12;19.73;41.74
68276;DHT22;55106;51.438;-0.098;2022-09-17T10:00:41;22.03;38.18
68276;DHT22;55106;51.438;-0.098;2022-09-17T10:03:31;21.59;38.14
68276;DHT22;55106;51.438;-0.098;2022-09-17T10:06:03;21.15;38.01
68276;DHT22;55106;51.438;-0.098;2022-09-17T10:08:37;20.80;38.97
68276;DHT22;55106;51.438;-0.098;2022-09-17T10:13:39;20.18;39.57
68276;DHT22;55106;51.438;-0.098;2022-09-17T10:16:20;20.57;39.26
68276;DHT22;55106;51.438;-0.098;2022-09-17T10:18:47;22.03;38.27
68276;DHT22;55106;51.438;-0.098;2022-09-17T10:21:21;20.46;39.81
68276;DHT22;55106;51.438;-0.098;2022-09-17T10:23:48;21.81;38.41
68276;DHT22;55106;51.438;-0.098;2022-09-17T10:26:23;20.45;40.81
68276;DHT22;55106;51.438;-0.098;2022-09-17T10:28:50;22.21;39.77
68276;DHT22;55106;51.438;-0.098;2022-09-17T10:31:17;20.90;39.57
68276;DHT22;55106;51.438;-0.098;2022-09-17T10:33:51;21.66;38.58
68276;DHT22;55106;51.438;-0.098;2022-09-17T10:36:34;22.09;38.19
68276;DHT22;55106;51.438;-0.098;2022-09-17T10:39:18;21.62;39.59
68276;DHT22;55106;51.438;-0.098;2022-09-17T10:42:12;20.84;40.85
68276;DHT22;55106;51.438;-0.098;2022-09-17T10:44:38;20.84;40.32
68276;DHT22;55106;51.438;-0.098;2022-09-17T10:47:24;21.15;39.75
68276;DHT22;55106;51.438;-0.098;2022-09-17T10:52:27;20.29;40.37
68276;DHT22;55106;51.438;-0.098;2022-09-17T11:05:40;19.30;43.63
68276;DHT22;55106;51.438;-0.098;2022-09-17T11:17:26;19.60;43.98
68276;DHT22;55106;51.438;-0.098;2022-09-17T11:23:20;20.59;42.66
68276;DHT22;55106;51.438;-0.098;2022-09-17T11:25:54;20.00;43.01
68276;DHT22;55106;51.438;-0.098;2022-09-17T11:34:14;20.31;41.58
68276;DHT22;55106;51.438;-0.098;2022-09-17T11:36:49;21.14;40.75
68276;DHT22;55106;51.438;-0.098;2022-09-17T11:39:31;19.83;43.36
68276;DHT22;55106;51.438;-0.098;2022-09-17T11:41:59;20.15;43.12
68276;DHT22;55106;51.438;-0.098;2022-09-17T11:44:32;21.48;40.63
68276;DHT22;55106;51.438;-0.098;2022-09-17T11:52:30;21.10;41.16
68276;DHT22;55106;51.438;-0.098;2022-09-17T11:55:09;19.91;42.53
68276;DHT22;55106;51.438;-0.098;2022-09-17T11:57:40;18.47;44.99
68276;DHT22;55106;51.438;-0.098;2022-09-17T12:00:17;17.70;46.96
68276;DHT22;55106;51.438;-0.098;2022-09-17T12:05:22;17.23;47.83
68276;DHT22;55106;51.438;-0.098;2022-09-17T12:07:55;17.36;47.49
68276;DHT22;55106;51.438;-0.098;2022-09-17T12:21:36;17.73;46.17
68276;DHT22;55106;51.438;-0.098;2022-09-17T12:37:23;17.37;48.86
68276;DHT22;55106;51.438;-0.098;2022-09-17T12:40:01;17.20;47.88
68276;DHT22;55106;51.438;-0.098;2022-09-17T12:45:19;17.13;50.17
68276;DHT22;55106;51.438;-0.098;2022-09-17T12:48:19;17.20;48.08
68276;DHT22;55106;51.438;-0.098;2022-09-17T12:53:35;17.22;47.86
68276;DHT22;55106;51.438;-0.098;2022-09-17T12:56:22;16.85;47.66
68276;DHT22;55106;51.438;-0.098;2022-09-17T12:59:17;17.16;49.52
68276;DHT22;55106;51.438;-0.098;2022-09-17T13:10:12;17.09;47.38
68276;DHT22;55106;51.438;-0.098;2022-09-17T13:15:59;17.02;46.33
68276;DHT22;55106;51.438;-0.098;2022-09-17T13:18:33;16.72;48.03
68276;DHT22;55106;51.438;-0.098;2022-09-17T13:21:12;16.78;49.11
68276;DHT22;55106;51.438;-0.098;2022-09-17T13:23:40;16.93;48.71
68276;DHT22;55106;51.438;-0.098;2022-09-17T13:26:07;17.07;48.23
68276;DHT22;55106;51.438;-0.098;2022-09-17T13:28:51;17.03;47.69
68276;DHT22;55106;51.438;-0.098;2022-09-17T13:34:01;17.15;49.15
68276;DHT22;55106;51.438;-0.098;2022-09-17T13:36:35;17.13;49.28
68276;DHT22;55106;51.438;-0.098;2022-09-17T13:39:03;17.03;48.33
68276;DHT22;55106;51.438;-0.098;2022-09-17T13:41:32;16.89;46.47
68276;DHT22;55106;51.438;-0.098;2022-09-17T13:43:58;16.90;48.34
68276;DHT22;55106;51.438;-0.098;2022-09-17T13:46:25;16.88;48.48
68276;DHT22;55106;51.438;-0.098;2022-09-17T13:48:55;16.86;48.95
68276;DHT22;55106;51.438;-0.098;2022-09-17T13:54:05;16.68;46.49
68276;DHT22;55106;51.438;-0.098;2022-09-17T13:56:45;16.59;46.99
68276;DHT22;55106;51.438;-0.098;2022-09-17T13:59:20;16.67;47.92
68276;DHT22;55106;51.438;-0.098;2022-09-17T14:02:00;16.57;47.44
68276;DHT22;55106;51.438;-0.098;2022-09-17T14:09:56;16.50;47.59
68276;DHT22;55106;51.438;-0.098;2022-09-17T14:23:44;16.42;48.42
68276;DHT22;55106;51.438;-0.098;2022-09-17T14:26:17;16.41;48.18
68276;DHT22;55106;51.438;-0.098;2022-09-17T14:31:33;16.55;49.56
68276;DHT22;55106;51.438;-0.098;2022-09-17T14:34:03;16.50;48.34
68276;DHT22;55106;51.438;-0.098;2022-09-17T14:36:33;16.21;48.51
68276;DHT22;55106;51.438;-0.098;2022-09-17T14:39:01;16.14;48.23
68276;DHT22;55106;51.438;-0.098;2022-09-17T14:41:34;16.21;49.05
68276;DHT22;55106;51.438;-0.098;2022-09-17T14:44:21;16.27;48.77
68276;DHT22;55106;51.438;-0.098;2022-09-17T14:49:32;16.48;49.15
68276;DHT22;55106;51.438;-0.098;2022-09-17T14:51:58;16.51;49.19
68276;DHT22;55106;51.438;-0.098;2022-09-17T14:54:31;16.41;49.48
68276;DHT22;55106;51.438;-0.098;2022-09-17T15:19:04;16.04;49.97
68276;DHT22;55106;51.438;-0.098;2022-09-17T15:21:39;16.02;49.14
68276;DHT22;55106;51.438;-0.098;2022-09-17T15:27:21;16.41;48.17
68276;DHT22;55106;51.438;-0.098;2022-09-17T15:29:51;16.35;48.98
68276;DHT22;55106;51.438;-0.098;2022-09-17T15:32:18;16.32;49.15
68276;DHT22;55106;51.438;-0.098;2022-09-17T15:34:44;16.31;47.83
68276;DHT22;55106;51.438;-0.098;2022-09-17T15:39:46;16.23;47.36
68276;DHT22;55106;51.438;-0.098;2022-09-17T15:42:29;16.25;46.78
68276;DHT22;55106;51.438;-0.098;2022-09-17T15:45:15;16.20;47.60
68276;DHT22;55106;51.438;-0.098;2022-09-17T15:47:57;16.14;47.66
68276;DHT22;55106;51.438;-0.098;2022-09-17T15:55:38;15.94;47.89
68276;DHT22;55106;51.438;-0.098;2022-09-17T15:58:20;15.99;48.37
68276;DHT22;55106;51.438;-0.098;2022-09-17T16:00:46;16.06;46.92
68276;DHT22;55106;51.438;-0.098;2022-09-17T16:03:54;15.96;46.89
68276;DHT22;55106;51.438;-0.098;2022-09-17T16:08:59;15.85;48.82
68276;DHT22;55106;51.438;-0.098;2022-09-17T16:11:27;15.83;47.75
68276;DHT22;55106;51.438;-0.098;2022-09-17T16:13:54;15.70;47.29
68276;DHT22;55106;51.438;-0.098;2022-09-17T16:16:22;15.76;47.52
68276;DHT22;55106;51.438;-0.098;2022-09-17T16:18:48;15.76;47.92
68276;DHT22;55106;51.438;-0.098;2022-09-17T16:21:16;15.89;46.69
68276;DHT22;55106;51.438;-0.098;2022-09-17T16:23:42;15.79;47.74
68276;DHT22;55106;51.438;-0.098;2022-09-17T16:26:11;15.85;47.10
68276;DHT22;55106;51.438;-0.098;2022-09-17T16:28:38;15.83;47.20
68276;DHT22;55106;51.438;-0.098;2022-09-17T16:31:04;15.82;48.50
68276;DHT22;55106;51.438;-0.098;2022-09-17T16:33:30;15.92;47.76
68276;DHT22;55106;51.438;-0.098;2022-09-17T16:35:59;15.86;47.16
68276;DHT22;55106;51.438;-0.098;2022-09-17T16:38:24;15.75;47.76
68276;DHT22;55106;51.438;-0.098;2022-09-17T16:40:50;15.67;48.24
68276;DHT22;55106;51.438;-0.098;2022-09-17T16:43:16;15.63;48.12
68276;DHT22;55106;51.438;-0.098;2022-09-17T16:45:42;15.56;48.15
68276;DHT22;55106;51.438;-0.098;2022-09-17T16:48:08;15.51;48.87
68276;DHT22;55106;51.438;-0.098;2022-09-17T16:50:33;15.46;50.04
68276;DHT22;55106;51.438;-0.098;2022-09-17T16:53:00;15.38;50.51
68276;DHT22;55106;51.438;-0.098;2022-09-17T16:55:27;15.32;50.12
68276;DHT22;55106;51.438;-0.098;2022-09-17T16:57:56;15.31;49.41
68276;DHT22;55106;51.438;-0.098;2022-09-17T17:00:22;15.18;50.61
68276;DHT22;55106;51.438;-0.098;2022-09-17T17:02:53;15.24;49.98
68276;DHT22;55106;51.438;-0.098;2022-09-17T17:05:18;15.20;50.87
68276;DHT22;55106;51.438;-0.098;2022-09-17T17:07:44;15.12;50.94
68276;DHT22;55106;51.438;-0.098;2022-09-17T17:10:09;15.14;51.14
68276;DHT22;55106;51.438;-0.098;2022-09-17T17:12:36;15.07;50.52
68276;DHT22;55106;51.438;-0.098;2022-09-17T17:15:02;15.00;52.04
68276;DHT22;55106;51.438;-0.098;2022-09-17T17:17:31;14.98;50.50
68276;DHT22;55106;51.438;-0.098;2022-09-17T17:19:57;15.03;49.31
68276;DHT22;55106;51.438;-0.098;2022-09-17T17:22:23;14.96;50.84
68276;DHT22;55106;51.438;-0.098;2022-09-17T17:24:48;14.84;50.85
68276;DHT22;55106;51.438;-0.098;2022-09-17T17:27:13;14.76;51.06
68276;DHT22;55106;51.438;-0.098;2022-09-17T17:29:39;14.75;50.19
68276;DHT22;55106;51.438;-0.098;2022-09-17T17:32:06;14.83;50.54
68276;DHT22;55106;51.438;-0.098;2022-09-17T17:34:31;14.83;50.32
68276;DHT22;55106;51.438;-0.098;2022-09-17T17:36:57;14.70;50.75
68276;DHT22;55106;51.438;-0.098;2022-09-17T17:39:24;14.86;49.38
68276;DHT22;55106;51.438;-0.098;2022-09-17T17:41:49;14.77;49.76
68276;DHT22;55106;51.438;-0.098;2022-09-17T17:44:15;14.70;49.58
68276;DHT22;55106;51.438;-0.098;2022-09-17T17:46:40;14.60;50.76
68276;DHT22;55106;51.438;-0.098;2022-09-17T17:49:06;14.53;50.36
68276;DHT22;55106;51.438;-0.098;2022-09-17T17:51:33;14.38;51.94
68276;DHT22;55106;51.438;-0.098;2022-09-17T17:53:58;14.25;52.43
68276;DHT22;55106;51.438;-0.098;2022-09-17T17:56:24;14.18;52.31
68276;DHT22;55106;51.438;-0.098;2022-09-17T17:58:54;14.08;53.33
68276;DHT22;55106;51.438;-0.098;2022-09-17T18:01:23;13.95;53.57
68276;DHT22;55106;51.438;-0.098;2022-09-17T18:03:54;13.81;52.95
68276;DHT22;55106;51.438;-0.098;2022-09-17T18:06:20;13.64;53.17
68276;DHT22;55106;51.438;-0.098;2022-09-17T18:08:46;13.62;53.99
68276;DHT22;55106;51.438;-0.098;2022-09-17T18:11:11;13.49;55.56
68276;DHT22;55106;51.438;-0.098;2022-09-17T18:13:37;13.36;54.93
68276;DHT22;55106;51.438;-0.098;2022-09-17T18:16:05;13.43;54.35
68276;DHT22;55106;51.438;-0.098;2022-09-17T18:18:33;13.42;53.73
68276;DHT22;55106;51.438;-0.098;2022-09-17T18:21:01;13.32;54.12
68276;DHT22;55106;51.438;-0.098;2022-09-17T18:23:27;13.25;54.85
68276;DHT22;55106;51.438;-0.098;2022-09-17T18:25:57;13.16;56.23
68276;DHT22;55106;51.438;-0.098;2022-09-17T18:28:24;12.99;56.27
68276;DHT22;55106;51.438;-0.098;2022-09-17T18:30:49;12.91;56.21
68276;DHT22;55106;51.438;-0.098;2022-09-17T18:33:25;12.81;56.15
68276;DHT22;55106;51.438;-0.098;2022-09-17T18:35:52;12.77;56.70
68276;DHT22;55106;51.438;-0.098;2022-09-17T18:38:22;12.67;56.93
68276;DHT22;55106;51.438;-0.098;2022-09-17T18:40:48;12.73;56.81
68276;DHT22;55106;51.438;-0.098;2022-09-17T18:43:14;12.63;57.31
68276;DHT22;55106;51.438;-0.098;2022-09-17T18:45:39;12.81;56.33
68276;DHT22;55106;51.438;-0.098;2022-09-17T18:48:06;12.73;56.37
68276;DHT22;55106;51.438;-0.098;2022-09-17T18:50:31;12.67;56.79
68276;DHT22;55106;51.438;-0.098;2022-09-17T18:52:57;12.56;57.74
68276;DHT22;55106;51.438;-0.098;2022-09-17T18:55:23;12.46;57.92
68276;DHT22;55106;51.438;-0.098;2022-09-17T18:57:51;12.53;58.03
68276;DHT22;55106;51.438;-0.098;2022-09-17T19:00:18;12.50;58.42
68276;DHT22;55106;51.438;-0.098;2022-09-17T19:02:48;12.41;58.29
68276;DHT22;55106;51.438;-0.098;2022-09-17T19:05:15;12.41;58.98
68276;DHT22;55106;51.438;-0.098;2022-09-17T19:07:44;12.30;58.32
68276;DHT22;55106;51.438;-0.098;2022-09-17T19:10:10;12.15;59.81
68276;DHT22;55106;51.438;-0.098;2022-09-17T19:12:36;11.99;60.65
68276;DHT22;55106;51.438;-0.098;2022-09-17T19:15:02;11.81;61.95
68276;DHT22;55106;51.438;-0.098;2022-09-17T19:17:28;11.70;62.44